Weather observations for the past three days for
Stillwater, Stillwater Regional Airport
Imperial (Metric)
Date Time (cdt) Wind (mph) Vis. (mi.) Weather Sky Cond. Temperature (ºF) Relative Humidity Wind Chill (°F) Heat Index (°F) Pressure Precipitation (in)
Air Dwpt 6 hour altimeter (in) sea level (mb) 1 hr 3 hr 6 hr
Max. Min.
05 03:53 E 10 10.00 Fair CLR 66.9 62.1 84% 29.53 998.6
05 02:53 E 9 10.00 Fair CLR 68 62.1 81% 29.54 999.0
05 01:53 SE 7 10.00 Fair CLR 69.1 62.1 78% 29.55 999.5
05 00:53 S 9 10.00 Fair CLR 71.1 62.1 78.1 71.1 73% 29.55 999.3
04 23:53 SW 10 G 20 10.00 Fair CLR 72 62.1 71% 29.56 999.8
04 22:53 S 15 G 22 10.00 Fair CLR 73 61 66% 29.57 1000.0
04 21:53 S 14 10.00 Fair CLR 73 61 66% 29.57 1000.2
04 20:53 SE 12 10.00 Fair CLR 73.9 61 64% 29.57 1000.2
04 19:53 S 10 10.00 Fair CLR 75.9 61 60% 78 29.58 1000.5
04 18:53 S 18 10.00 Fair CLR 78.1 60.1 82 78.1 54% 79 29.58 1000.6
04 17:53 S 17 G 29 10.00 Fair CLR 79 59 50% 80 29.6 1001.2
04 16:53 S 18 G 28 10.00 Fair CLR 80.1 57.9 47% 81 29.61 1001.7
04 15:53 S 17 G 29 10.00 Fair CLR 82 57.9 44% 82 29.63 1002.2
04 14:53 SW 20 G 32 10.00 Fair CLR 81 57 44% 81 29.65 1002.7
04 13:53 SW 22 G 29 10.00 Fair and Breezy CLR 80.1 55.9 44% 80 29.67 1003.4
04 12:53 SW 18 G 30 10.00 Fair CLR 78.1 54 79 57 43% 79 29.69 1004.4
04 11:53 S 22 G 29 10.00 Fair and Breezy CLR 77 53.1 43% 78 29.7 1004.7
04 10:53 SW 18 G 29 10.00 Fair CLR 75 51.1 43% 78 29.72 1005.3
04 09:53 SW 20 G 30 10.00 Fair CLR 72 51.1 48% 29.74 1005.9
04 08:53 SW 14 G 21 10.00 Fair CLR 69.1 50 51% 29.75 1006.4
04 07:53 S 10 10.00 Fair CLR 64 48.9 58% 29.75 1006.4
04 06:53 S 9 10.00 Fair CLR 57 46 66.9 55.9 67% 29.75 1006.5
04 05:53 S 10 10.00 Fair CLR 59 46 62% 29.76 1006.8
04 04:53 S 9 10.00 Fair CLR 60.1 45 58% 29.78 1007.3
04 03:53 S 7 10.00 Fair CLR 62.1 44.1 52% 29.79 1007.5
04 02:53 S 8 10.00 Fair CLR 64 44.1 48% 29.8 1008.1
04 01:53 SW 14 10.00 Fair CLR 66.9 43 42% 29.82 1008.5
04 00:53 SW 10 10.00 Fair CLR 66 43 81 66 43% 29.83 1009.1
03 23:53 S 14 10.00 Fair CLR 66.9 43 42% 29.84 1009.5
03 22:53 S 15 10.00 Fair CLR 69.1 43 39% 29.85 1009.8
03 21:53 S 14 10.00 Fair CLR 71.1 42.1 35% 29.85 1009.8
03 20:53 S 14 10.00 Fair CLR 73 42.1 33% 29.84 1009.6
03 19:53 SW 13 10.00 Fair CLR 75.9 41 29% 77 29.83 1009.2
03 18:53 SW 16 G 30 10.00 Fair CLR 81 39.9 84.9 80.1 23% 79 29.84 1009.7
03 17:53 SW 22 G 29 10.00 Fair and Breezy CLR 82.9 39.9 22% 81 29.85 1009.9
03 16:53 SW 18 G 32 10.00 Fair CLR 84 39 20% 81 29.87 1010.5
03 15:53 SW 20 G 29 10.00 Fair CLR 84 39 20% 81 29.89 1011.2
03 14:53 W 18 G 29 10.00 Fair CLR 84.9 37 18% 82 29.92 1012.2
03 13:53 W 12 G 28 10.00 Fair CLR 84 41 22% 81 29.95 1013.1
03 12:53 SW 12 G 21 10.00 Fair CLR 81 45 81 50 28% 80 29.99 1014.6
03 11:53 SW 14 10.00 Fair CLR 77 48 36% 78 30.01 1015.6
03 10:53 SW 12 10.00 Fair CLR 73 48 41% 30.02 1015.9
03 09:53 SW 9 10.00 Fair CLR 66 48 52% 30.03 1016.2
03 08:53 S 10 10.00 Fair CLR 61 46.9 60% 30.03 1016.4
03 07:53 S 10 10.00 Fair CLR 55.9 45 67% 30.04 1016.5
03 06:53 S 8 10.00 Fair CLR 50 42.1 54 48.9 74% 47 30.03 1016.3
03 05:53 S 6 10.00 Fair CLR 50 39.9 68% 48 30.03 1016.4
03 04:53 S 7 10.00 Fair CLR 51.1 39.9 66% 30.05 1017.0
03 03:53 S 8 10.00 Fair CLR 51.1 41 69% 30.07 1017.5
03 02:53 S 7 10.00 Fair CLR 53.1 41 64% 30.08 1018.1
03 01:53 S 10 10.00 Fair CLR 53.1 41 64% 30.1 1018.7
03 00:53 S 5 10.00 Fair CLR 53.1 41 69.1 48.9 64% 30.11 1018.9
02 23:53 SE 5 10.00 Fair CLR 52 42.1 69% 30.1 1018.6
02 22:53 SE 3 10.00 Fair CLR 51.1 43 74% 30.1 1018.6
02 21:53 SE 5 10.00 Fair CLR 55.9 42.1 60% 30.09 1018.4
02 20:53 S 5 10.00 Fair CLR 57 45 64% 30.08 1018.2
02 19:53 NE 5 10.00 Fair CLR 64.9 43 45% 30.08 1018.1
02 18:53 NE 5 10.00 Fair CLR 69.1 39 71.1 66.9 33% 30.08 1018.2
02 17:53 NE 3 10.00 Fair CLR 70 37.9 31% 30.09 1018.5
02 16:53 Vrbl 5 10.00 Fair CLR 71.1 37.9 30% 30.1 1018.8
02 15:53 Vrbl 5 10.00 Fair CLR 71.1 41 34% 30.12 1019.3
02 14:53 Vrbl 3 10.00 Fair CLR 69.1 39 33% 30.14 1020.1
02 13:53 NE 9 10.00 Fair CLR 69.1 41 36% 30.15 1020.4
02 12:53 Calm 10.00 Fair CLR 66.9 42.1 68 48 41% 30.17 1021.0
02 11:53 NE 7 10.00 Fair CLR 66 45 47% 30.17 1021.2
02 10:53 Vrbl 3 10.00 Fair CLR 64 42.1 45% 30.17 1021.1
02 09:53 Calm 10.00 Fair CLR 61 42.1 50% 30.18 1021.3
02 08:53 E 5 10.00 A Few Clouds FEW070 55 46.9 74% 30.17 1021.1
02 07:53 N 3 10.00 Mostly Cloudy SCT085 BKN110 50 46.9 89% 30.16 1020.8
02 06:53 Calm 10.00 Partly Cloudy SCT090 48 46 55 45 93% 30.12 1019.3 0.01
02 05:53 SW 5 10.00 A Few Clouds FEW120 48 46 93% 47 30.11 1019.0
02 04:53 NW 7 10.00 Mostly Cloudy FEW036 BKN075 BKN095 48.9 46.9 93% 46 30.15 1020.6 0.01
Date Time (cdt) Wind (mph) Vis. (mi.) Weather Sky Cond. Air Dwpt Max. Min. Relative Humidity Wind Chill (°F) Heat Index (°F) altimeter (in) sea level (mb) 1 hr 3 hr 6 hr
6 hour
Temperature (ºF) Pressure Precipitation (in)